Time;durP1;ratioP1;P1;durP2;ratioP2;P2;SDS_P1;SDS_P2;PMS_P1;PMS_P2;Temp;Humidity;BMP_temperature;BMP_pressure;BME280_temperature;BME280_humidity;BME280_pressure;Samples;Min_cycle;Max_cycle;Signal;HPM_P1;HPM_P2
2022/08/19 00:01:37;;;;;;;7.10;6.10;;;;;;;-141.28;100.00;49819.94;5111210;28;20187;-75
2022/08/19 00:04:08;;;;;;;8.80;6.57;;;;;;;-141.28;100.00;49780.69;5081087;28;20216;-75
2022/08/19 00:06:38;;;;;;;8.17;5.77;;;;;;;-141.28;100.00;49857.22;5093754;28;20256;-77
2022/08/19 00:09:09;;;;;;;8.83;6.60;;;;;;;-141.28;100.00;49902.34;5093838;28;20210;-76
2022/08/19 00:11:37;;;;;;;9.40;6.07;;;;;;;-141.28;100.00;49953.38;5093152;28;20646;-73
2022/08/19 00:14:08;;;;;;;10.17;5.87;;;;;;;-141.28;100.00;49957.31;5093642;28;20195;-73
2022/08/19 00:16:38;;;;;;;10.43;5.37;;;;;;;-141.28;100.00;49923.94;5102089;28;20268;-73
2022/08/19 00:19:06;;;;;;;6.47;5.50;;;;;;;-141.28;100.00;49880.75;5099707;28;20203;-74
2022/08/19 00:21:38;;;;;;;9.30;5.60;;;;;;;-141.28;100.00;49847.41;5103589;28;20196;-74
2022/08/19 00:24:08;;;;;;;8.63;6.10;;;;;;;-141.28;100.00;49839.56;5106706;28;20294;-73
2022/08/19 00:26:35;;;;;;;6.83;5.90;;;;;;;-141.28;100.00;49843.47;5094699;28;20621;-75
2022/08/19 00:29:03;;;;;;;7.97;5.27;;;;;;;-141.28;100.00;49788.53;5097484;28;20321;-75
2022/08/19 00:31:31;;;;;;;7.83;5.33;;;;;;;-141.28;100.00;49792.44;5109980;28;20211;-74
2022/08/19 00:33:58;;;;;;;8.60;5.33;;;;;;;-141.28;100.00;49812.06;5097389;28;20596;-74
2022/08/19 00:36:25;;;;;;;7.03;5.33;;;;;;;-141.28;100.00;49849.38;5088270;28;20195;-74
2022/08/19 00:38:53;;;;;;;6.53;5.93;;;;;;;-141.28;100.00;49812.06;5088514;28;20279;-74
2022/08/19 00:41:23;;;;;;;7.00;5.47;;;;;;;-141.28;100.00;49792.44;5103346;28;20252;-76
2022/08/19 00:44:00;;;;;;;15.83;6.57;;;;;;;-141.28;100.00;49810.13;5095038;28;20227;-76
2022/08/19 00:46:27;;;;;;;6.27;5.67;;;;;;;-141.28;100.00;49831.69;5102125;28;20199;-76
2022/08/19 00:48:55;;;;;;;10.43;6.73;;;;;;;-141.28;100.00;49798.34;5105850;28;20524;-75
2022/08/19 00:51:23;;;;;;;7.53;5.77;;;;;;;-141.28;100.00;49857.22;5092604;28;20643;-75
2022/08/19 00:53:51;;;;;;;7.23;5.80;;;;;;;-141.28;100.00;49855.25;5096450;28;20280;-75
2022/08/19 00:56:18;;;;;;;10.60;6.43;;;;;;;-141.28;100.00;49835.63;5111840;28;20198;-77
2022/08/19 00:58:47;;;;;;;9.83;6.47;;;;;;;-141.28;100.00;49867.03;5106663;28;20206;-75
2022/08/19 01:01:14;;;;;;;9.03;5.97;;;;;;;-141.28;100.00;49867.03;5104027;28;20649;-75
2022/08/19 01:03:42;;;;;;;9.67;5.97;;;;;;;-141.28;100.00;49910.19;5100006;28;20199;-73
2022/08/19 01:06:09;;;;;;;8.20;5.80;;;;;;;-141.28;100.00;49839.56;5111333;28;20229;-74
2022/08/19 01:08:36;;;;;;;8.23;5.93;;;;;;;-141.28;100.00;49839.56;5108807;28;20196;-74
2022/08/19 01:11:04;;;;;;;9.57;6.00;;;;;;;-141.28;100.00;49841.50;5102484;28;20665;-74
2022/08/19 01:13:34;;;;;;;7.40;6.60;;;;;;;-141.28;100.00;49867.03;5111747;28;20635;-75
2022/08/19 01:16:07;;;;;;;8.50;6.57;;;;;;;-141.28;100.00;49906.28;5094071;28;20646;-75
2022/08/19 01:18:40;;;;;;;14.83;6.67;;;;;;;-141.28;100.00;49939.63;5093283;28;20196;-75
2022/08/19 01:21:15;;;;;;;11.60;7.23;;;;;;;-141.28;100.00;50020.09;5091949;28;20204;-73
2022/08/19 01:23:44;;;;;;;9.13;7.30;;;;;;;-141.28;100.00;50071.13;5099594;28;20734;-74
2022/08/19 01:26:14;;;;;;;8.43;7.33;;;;;;;-141.28;100.00;50080.94;5109474;28;20230;-74
2022/08/19 01:28:44;;;;;;;8.13;7.33;;;;;;;-141.28;100.00;50165.34;5100428;28;20199;-73
2022/08/19 01:31:14;;;;;;;10.50;7.30;;;;;;;-141.28;100.00;50173.19;5111138;28;20250;-76
2022/08/19 01:33:42;;;;;;;12.23;7.23;;;;;;;-141.28;100.00;50200.66;5099207;28;20219;-74
2022/08/19 01:36:12;;;;;;;12.97;7.70;;;;;;;-141.28;100.00;50241.88;5091741;28;20196;-74
2022/08/19 01:38:42;;;;;;;8.90;6.67;;;;;;;-141.28;100.00;50249.75;5083251;28;20208;-77
2022/08/19 01:41:11;;;;;;;7.77;7.00;;;;;;;-141.28;100.00;50253.66;5093086;28;20191;-76
2022/08/19 01:43:39;;;;;;;11.37;6.83;;;;;;;-141.28;100.00;50290.97;5093503;28;20195;-75
2022/08/19 01:46:06;;;;;;;9.93;7.37;;;;;;;-141.28;100.00;50275.25;5110043;28;20325;-75
2022/08/19 01:48:39;;;;;;;10.77;7.27;;;;;;;-141.28;100.00;50267.41;5111524;28;20561;-74
2022/08/19 01:51:08;;;;;;;7.40;6.57;;;;;;;-141.28;100.00;50277.22;5105701;28;20215;-74
2022/08/19 01:53:35;;;;;;;11.07;7.67;;;;;;;-141.28;100.00;50314.50;5078377;28;20211;-74
2022/08/19 01:56:04;;;;;;;8.50;6.63;;;;;;;-141.28;100.00;50287.03;5085273;28;20282;-76
2022/08/19 01:58:36;;;;;;;11.40;6.90;;;;;;;-141.28;100.00;50294.88;5097392;28;20230;-74
2022/08/19 02:01:05;;;;;;;7.90;6.80;;;;;;;-141.28;100.00;50283.09;5093197;28;20227;-75
2022/08/19 02:03:34;;;;;;;7.53;6.70;;;;;;;-141.28;100.00;50294.88;5090961;28;20200;-74
2022/08/19 02:06:04;;;;;;;10.33;7.57;;;;;;;-141.28;100.00;50287.03;5092906;28;20287;-76
2022/08/19 02:08:35;;;;;;;11.93;7.07;;;;;;;-141.28;100.00;50320.41;5095596;28;20645;-76
2022/08/19 02:11:03;;;;;;;10.00;6.93;;;;;;;-141.28;100.00;50292.91;5099965;28;20199;-76
2022/08/19 02:13:32;;;;;;;8.53;7.10;;;;;;;-141.28;100.00;50287.03;5104712;28;20206;-74
2022/08/19 02:15:59;;;;;;;8.30;6.83;;;;;;;-141.28;100.00;50326.28;5113216;28;20194;-75
2022/08/19 02:18:27;;;;;;;10.83;7.17;;;;;;;-141.28;100.00;50300.78;5115377;28;20207;-77
2022/08/19 02:20:55;;;;;;;9.27;6.83;;;;;;;-141.28;100.00;50345.91;5106939;28;20573;-74
2022/08/19 02:23:22;;;;;;;11.00;6.77;;;;;;;-141.28;100.00;50357.69;5095738;28;20191;-74
2022/08/19 02:25:51;;;;;;;12.37;7.77;;;;;;;-141.28;100.00;50345.91;5098028;28;20570;-74
2022/08/19 02:28:19;;;;;;;12.33;7.43;;;;;;;-141.28;100.00;50359.66;5097971;28;20204;-73
2022/08/19 02:30:48;;;;;;;9.03;6.90;;;;;;;-141.28;100.00;50361.63;5095423;28;20673;-75
2022/08/19 02:33:16;;;;;;;9.30;6.70;;;;;;;-141.28;100.00;50347.88;5095208;28;20222;-75
2022/08/19 02:35:45;;;;;;;8.00;7.20;;;;;;;-141.28;100.00;50349.84;5095215;28;20199;-74
2022/08/19 02:38:27;;;;;;;13.33;7.43;;;;;;;-141.28;100.00;50332.19;5083021;28;20200;-75
2022/08/19 02:40:57;;;;;;;7.83;7.03;;;;;;;-141.28;100.00;50389.09;5111288;28;20242;-77
2022/08/19 02:43:26;;;;;;;10.80;7.20;;;;;;;-141.28;100.00;50373.38;5105181;28;20206;-77
2022/08/19 02:45:55;;;;;;;8.57;7.07;;;;;;;-141.28;100.00;50361.63;5108242;28;20223;-74
2022/08/19 02:48:25;;;;;;;12.13;7.80;;;;;;;-141.28;100.00;50355.72;5106023;28;20214;-76
2022/08/19 02:50:55;;;;;;;14.97;7.77;;;;;;;-141.28;100.00;50359.66;5109271;28;20563;-76
2022/08/19 02:53:25;;;;;;;9.07;7.13;;;;;;;-141.28;100.00;50345.91;5095080;28;20195;-74
2022/08/19 02:55:53;;;;;;;12.67;7.13;;;;;;;-141.28;100.00;50361.63;5094991;28;20237;-76
2022/08/19 02:58:21;;;;;;;12.53;7.03;;;;;;;-141.28;100.00;50379.28;5094496;28;20646;-75
2022/08/19 03:00:52;;;;;;;11.33;7.17;;;;;;;-141.28;100.00;50377.31;5094838;28;20650;-74
2022/08/19 03:03:23;;;;;;;10.93;8.00;;;;;;;-141.28;100.00;50393.03;5094742;28;20227;-75
2022/08/19 03:05:51;;;;;;;9.83;7.23;;;;;;;-141.28;100.00;50406.75;5094664;28;20223;-75
2022/08/19 03:08:19;;;;;;;7.77;6.97;;;;;;;-141.28;100.00;50400.88;5107785;28;20219;-73
2022/08/19 03:10:48;;;;;;;11.07;6.87;;;;;;;-141.28;100.00;50412.66;5107985;28;20195;-74
2022/08/19 03:13:18;;;;;;;9.90;7.20;;;;;;;-141.28;100.00;50402.84;5113475;28;20214;-74
2022/08/19 03:15:48;;;;;;;7.57;6.50;;;;;;;-141.28;100.00;50428.34;5101474;28;20208;-74
2022/08/19 03:18:16;;;;;;;7.93;6.47;;;;;;;-141.28;100.00;50400.88;5080497;28;20648;-74
2022/08/19 03:20:46;;;;;;;7.53;6.73;;;;;;;-141.28;100.00;50408.72;5094277;28;20276;-76
2022/08/19 03:23:15;;;;;;;18.90;7.77;;;;;;;-141.28;100.00;50389.09;5114482;28;20195;-76
2022/08/19 03:25:45;;;;;;;17.00;7.70;;;;;;;-141.28;100.00;50412.66;5110196;28;20322;-75
2022/08/19 03:28:12;;;;;;;10.77;7.13;;;;;;;-141.28;100.00;50385.16;5094011;28;20282;-74
2022/08/19 03:30:40;;;;;;;12.03;7.43;;;;;;;-141.28;100.00;50410.69;5102334;28;20203;-77
2022/08/19 03:33:08;;;;;;;10.97;7.60;;;;;;;-141.28;100.00;50398.91;5090586;28;20215;-74
2022/08/19 03:35:36;;;;;;;12.73;7.93;;;;;;;-141.28;100.00;50444.06;5103254;28;20206;-74
2022/08/19 03:38:05;;;;;;;11.60;7.70;;;;;;;-141.28;100.00;50440.13;5087792;28;20230;-75
2022/08/19 03:40:37;;;;;;;11.17;7.50;;;;;;;-141.28;100.00;50424.44;5082532;28;20211;-75
2022/08/19 03:43:05;;;;;;;11.93;7.97;;;;;;;-141.28;100.00;50487.25;5075677;28;20207;-75
2022/08/19 03:45:33;;;;;;;18.93;8.70;;;;;;;-141.28;100.00;50497.06;5093283;28;20318;-75
2022/08/19 03:48:00;;;;;;;18.33;9.63;;;;;;;-141.28;100.00;50499.00;5083621;28;20206;-75
2022/08/19 03:50:27;;;;;;;16.13;8.80;;;;;;;-141.28;100.00;50481.34;5112003;28;20235;-75
2022/08/19 03:52:55;;;;;;;10.27;8.17;;;;;;;-141.28;100.00;50420.50;5093656;28;20275;-76
2022/08/19 03:55:26;;;;;;;20.53;8.87;;;;;;;-141.28;100.00;50436.19;5093781;28;20243;-75
2022/08/19 03:57:53;;;;;;;10.47;7.90;;;;;;;-141.28;100.00;50475.47;5094828;28;20199;-74
2022/08/19 04:00:21;;;;;;;13.97;8.40;;;;;;;-141.28;100.00;50459.75;5093029;28;20188;-74
2022/08/19 04:02:48;;;;;;;13.27;7.77;;;;;;;-141.28;100.00;50416.56;5093449;28;20196;-73
2022/08/19 04:05:15;;;;;;;15.23;8.33;;;;;;;-141.28;100.00;50412.66;5094353;28;20192;-75
2022/08/19 04:07:43;;;;;;;17.50;8.53;;;;;;;-141.28;100.00;50416.56;5111895;28;20198;-74
2022/08/19 04:10:11;;;;;;;14.77;8.13;;;;;;;-141.28;100.00;50408.72;5105467;28;20203;-75
2022/08/19 04:12:41;;;;;;;14.40;8.00;;;;;;;-141.28;100.00;50453.88;5094522;28;20206;-77
2022/08/19 04:15:10;;;;;;;21.43;8.77;;;;;;;-141.28;100.00;50463.69;5104809;28;20195;-75
2022/08/19 04:17:40;;;;;;;14.50;7.60;;;;;;;-141.28;100.00;50499.00;5093110;28;20534;-75
2022/08/19 04:20:09;;;;;;;17.37;8.00;;;;;;;-141.28;100.00;50534.34;5093488;28;20195;-75
2022/08/19 04:22:37;;;;;;;12.93;8.17;;;;;;;-141.28;100.00;50636.41;5092621;28;20195;-75
2022/08/19 04:25:05;;;;;;;14.80;8.37;;;;;;;-141.28;100.00;50630.53;5103551;28;20195;-75
2022/08/19 04:27:33;;;;;;;9.73;7.50;;;;;;;-141.28;100.00;50683.53;5112465;28;20664;-74
2022/08/19 04:30:02;;;;;;;15.90;8.63;;;;;;;-141.28;100.00;50691.38;5116375;28;20290;-75
2022/08/19 04:32:31;;;;;;;10.03;7.67;;;;;;;-141.28;100.00;50681.56;5107319;28;20210;-76
2022/08/19 04:34:58;;;;;;;14.97;8.10;;;;;;;-141.28;100.00;50711.00;5102423;28;20206;-74
2022/08/19 04:37:26;;;;;;;14.67;8.53;;;;;;;-141.28;100.00;50707.09;5086108;28;20196;-74
2022/08/19 04:42:41;;;;;;;10.60;7.97;;;;;;;-141.28;100.00;50758.13;5092373;28;20293;-74
2022/08/19 04:45:12;;;;;;;22.80;9.23;;;;;;;-141.28;100.00;50758.13;5092465;28;20207;-75
2022/08/19 04:47:42;;;;;;;14.33;8.10;;;;;;;-141.28;100.00;50758.13;5097515;28;20255;-76
2022/08/19 04:50:11;;;;;;;16.47;7.97;;;;;;;-141.28;100.00;50777.75;5099864;28;20250;-74
2022/08/19 04:52:41;;;;;;;17.33;8.10;;;;;;;-141.28;100.00;50789.53;5105578;28;20249;-75
2022/08/19 04:55:10;;;;;;;19.40;8.17;;;;;;;-141.28;100.00;50769.91;5091942;28;20650;-74
2022/08/19 04:57:40;;;;;;;16.17;7.90;;;;;;;-141.28;100.00;50762.06;5092171;28;20199;-76
2022/08/19 05:00:11;;;;;;;11.07;7.40;;;;;;;-141.28;100.00;50730.66;5106333;28;20619;-74
2022/08/19 05:02:38;;;;;;;11.00;7.50;;;;;;;-141.28;100.00;50748.31;5112558;28;20194;-76
2022/08/19 05:05:06;;;;;;;15.57;8.13;;;;;;;-141.28;100.00;50769.91;5105086;28;20210;-75
2022/08/19 05:07:34;;;;;;;16.13;8.00;;;;;;;-141.28;100.00;50738.50;5100151;28;20638;-75
2022/08/19 05:10:02;;;;;;;16.20;8.93;;;;;;;-141.28;100.00;50760.09;5108737;28;20191;-74
2022/08/19 05:12:32;;;;;;;24.30;8.77;;;;;;;-141.28;100.00;50658.00;5112238;28;20198;-74
2022/08/19 05:15:01;;;;;;;33.50;10.50;;;;;;;-141.28;100.00;50614.81;5112552;28;20214;-75
2022/08/19 05:17:29;;;;;;;28.20;8.83;;;;;;;-141.28;100.00;50518.66;5101072;28;20194;-76
2022/08/19 05:22:42;;;;;;;26.00;8.93;;;;;;;-141.28;100.00;50495.09;5106172;28;20248;-74
2022/08/19 05:25:11;;;;;;;25.93;9.07;;;;;;;-141.28;100.00;50467.59;5100513;28;20703;-72
2022/08/19 05:27:39;;;;;;;22.83;8.87;;;;;;;-141.28;100.00;50436.19;5104928;28;20227;-73
2022/08/19 05:30:09;;;;;;;29.80;8.43;;;;;;;-141.28;100.00;50343.94;5096435;28;20196;-72
2022/08/19 05:32:37;;;;;;;14.63;7.97;;;;;;;-141.28;100.00;50357.69;5095960;28;20223;-75
2022/08/19 05:35:05;;;;;;;16.00;8.53;;;;;;;-141.28;100.00;50249.75;5096091;28;20210;-74
2022/08/19 05:37:32;;;;;;;18.90;8.93;;;;;;;-141.28;100.00;50279.19;5083480;28;20241;-74
2022/08/19 05:40:01;;;;;;;14.17;7.80;;;;;;;-141.28;100.00;50139.81;5096009;28;20650;-76
2022/08/19 05:42:30;;;;;;;17.80;8.17;;;;;;;-141.28;100.00;50096.66;5095831;28;20207;-76
2022/08/19 05:44:59;;;;;;;16.67;8.37;;;;;;;-141.28;100.00;50055.44;5095735;28;20193;-74
2022/08/19 05:47:27;;;;;;;12.30;7.23;;;;;;;-141.28;100.00;50057.41;5081652;28;20223;-73
2022/08/19 05:49:55;;;;;;;20.87;7.87;;;;;;;-141.28;100.00;49982.81;5094588;28;20317;-74
2022/08/19 05:52:24;;;;;;;19.57;8.10;;;;;;;-141.28;100.00;49992.63;5095320;28;20189;-75
2022/08/19 05:54:51;;;;;;;12.73;8.30;;;;;;;-141.28;100.00;49996.56;5095260;28;20570;-74
2022/08/19 05:57:19;;;;;;;15.40;7.93;;;;;;;-141.28;100.00;49906.28;5095632;28;20222;-73
2022/08/19 05:59:51;;;;;;;13.77;7.33;;;;;;;-141.28;100.00;49870.94;5095144;28;20205;-76
2022/08/19 06:02:18;;;;;;;18.20;7.77;;;;;;;-141.28;100.00;49849.38;5095210;28;20614;-77
2022/08/19 06:04:47;;;;;;;13.53;7.40;;;;;;;-141.28;100.00;49761.06;5077613;28;20225;-75
2022/08/19 06:07:20;;;;;;;17.77;8.33;;;;;;;-141.28;100.00;49780.69;5095252;28;20316;-75
2022/08/19 06:09:48;;;;;;;19.03;8.37;;;;;;;-141.28;100.00;49733.56;5093859;28;20199;-76
2022/08/19 06:12:17;;;;;;;26.93;8.67;;;;;;;-141.28;100.00;49670.78;5108706;28;20653;-76
2022/08/19 06:14:44;;;;;;;22.50;7.60;;;;;;;-141.28;100.00;49694.31;5104336;28;20203;-77
2022/08/19 06:17:13;;;;;;;12.93;7.63;;;;;;;-141.28;100.00;49631.53;5098552;28;20235;-75
2022/08/19 06:19:43;;;;;;;12.77;8.07;;;;;;;-141.28;100.00;49662.94;5095405;28;20194;-75
2022/08/19 06:22:12;;;;;;;18.70;7.50;;;;;;;-141.28;100.00;49615.84;5112268;28;20191;-75
2022/08/19 06:24:42;;;;;;;15.47;6.87;;;;;;;-141.28;100.00;49607.97;5114818;28;20202;-74
2022/08/19 06:27:11;;;;;;;11.87;6.63;;;;;;;-141.28;100.00;49588.34;5113460;28;20230;-73
2022/08/19 06:29:38;;;;;;;9.33;6.53;;;;;;;-141.28;100.00;49827.78;5114118;28;20198;-74
2022/08/19 06:32:06;;;;;;;18.77;7.77;;;;;;;-141.28;100.00;50118.25;5113386;28;20217;-77
2022/08/19 06:34:35;;;;;;;9.63;6.80;;;;;;;-141.28;100.00;50110.38;5111946;28;20207;-76
2022/08/19 06:37:02;;;;;;;13.20;7.03;;;;;;;-141.28;100.00;50151.59;5100545;28;20204;-76
2022/08/19 06:39:33;;;;;;;16.13;7.43;;;;;;;-141.28;100.00;50133.94;5098067;28;20267;-74
2022/08/19 06:42:06;;;;;;;11.10;6.73;;;;;;;-141.28;100.00;50098.63;5097364;28;20238;-73
2022/08/19 06:44:38;;;;;;;18.67;7.30;;;;;;;-141.28;100.00;50086.84;5103276;28;20191;-74
2022/08/19 06:47:07;;;;;;;15.80;7.30;;;;;;;-141.28;100.00;50082.91;5093922;28;20219;-78
2022/08/19 06:49:34;;;;;;;14.87;6.90;;;;;;;-141.28;100.00;50075.06;5094132;28;20231;-74
2022/08/19 06:52:01;;;;;;;17.13;6.20;;;;;;;-141.28;100.00;50039.72;5080783;28;20196;-75
2022/08/19 06:54:30;;;;;;;11.60;7.00;;;;;;;-141.28;100.00;49996.56;5097978;28;20257;-75
2022/08/19 06:56:57;;;;;;;12.37;6.67;;;;;;;-141.28;100.00;49992.63;5097701;28;20632;-75
2022/08/19 06:59:27;;;;;;;12.23;6.30;;;;;;;-141.28;100.00;49920.00;5111179;28;20208;-75
2022/08/19 07:01:58;;;;;;;13.53;6.80;;;;;;;-141.28;100.00;49886.66;5090558;28;20235;-77
2022/08/19 07:04:30;;;;;;;15.27;7.07;;;;;;;-141.28;100.00;49872.91;5116138;28;20198;-76
2022/08/19 07:07:00;;;;;;;18.30;6.73;;;;;;;-141.28;100.00;49768.91;5097439;28;20231;-76
2022/08/19 07:09:28;;;;;;;12.83;6.60;;;;;;;-141.28;100.00;49766.94;5097650;28;20195;-74
2022/08/19 07:11:56;;;;;;;9.90;6.50;;;;;;;-141.28;100.00;49702.19;5106838;28;20198;-75
2022/08/19 07:14:25;;;;;;;12.63;6.50;;;;;;;-141.28;100.00;49574.63;5100550;28;20296;-75
2022/08/19 07:16:56;;;;;;;9.90;6.13;;;;;;;-141.28;100.00;49509.88;5106025;28;20203;-75
2022/08/19 07:19:26;;;;;;;10.20;6.47;;;;;;;-141.28;100.00;49358.78;5112802;28;20187;-73
2022/08/19 07:21:54;;;;;;;8.00;6.40;;;;;;;-141.28;100.00;49345.03;5108057;28;20191;-73
2022/08/19 07:24:24;;;;;;;9.10;6.20;;;;;;;-141.28;100.00;49154.72;5080994;28;20196;-74
2022/08/19 07:26:54;;;;;;;9.27;6.33;;;;;;;-141.28;100.00;49062.50;5096815;28;20228;-76
2022/08/19 07:29:23;;;;;;;15.17;6.47;;;;;;;-141.28;100.00;49105.66;5101693;28;20199;-75
2022/08/19 07:31:50;;;;;;;9.33;6.33;;;;;;;-141.28;100.00;49027.19;5115717;28;20191;-76
2022/08/19 07:34:20;;;;;;;9.43;6.00;;;;;;;-141.28;100.00;49021.28;5095995;28;20199;-76
2022/08/19 07:36:47;;;;;;;13.53;6.90;;;;;;;-141.28;100.00;49105.66;5087286;28;20205;-75
2022/08/19 07:39:18;;;;;;;12.93;6.50;;;;;;;-141.28;100.00;49056.59;5093030;28;20195;-75
2022/08/19 07:41:46;;;;;;;8.60;6.40;;;;;;;-141.28;100.00;49011.47;5106665;28;20211;-75
2022/08/19 07:44:15;;;;;;;9.97;6.73;;;;;;;-141.28;100.00;48995.78;5095185;28;20198;-78
2022/08/19 07:46:46;;;;;;;8.43;6.20;;;;;;;-141.28;100.00;48917.31;5105934;28;20226;-76
2022/08/19 07:49:17;;;;;;;7.17;6.30;;;;;;;-141.28;100.00;48885.91;5114545;28;20705;-75
2022/08/19 07:51:46;;;;;;;9.37;6.10;;;;;;;-141.28;100.00;48854.53;5103847;28;20205;-74
2022/08/19 07:54:13;;;;;;;12.03;6.30;;;;;;;-141.28;100.00;48799.59;5095840;28;20202;-76
2022/08/19 07:56:42;;;;;;;14.10;6.53;;;;;;;-141.28;100.00;48846.69;5095975;28;20224;-76
2022/08/19 07:59:11;;;;;;;13.57;6.50;;;;;;;-141.28;100.00;48750.53;5082845;28;20203;-76
2022/08/19 08:01:39;;;;;;;10.53;6.10;;;;;;;-141.28;100.00;48697.56;5108178;28;20690;-73
2022/08/19 08:09:42;;;;;;;11.07;6.10;;;;;;;-141.28;100.00;48717.19;5108248;28;20248;-75
2022/08/19 08:12:12;;;;;;;10.23;6.10;;;;;;;-141.28;100.00;49050.72;5095725;28;20191;-76
2022/08/19 08:14:42;;;;;;;9.17;5.67;;;;;;;-141.28;100.00;48662.25;5096134;28;20196;-75
2022/08/19 08:17:09;;;;;;;12.43;7.13;;;;;;;-141.28;100.00;48721.13;5095252;28;20208;-74
2022/08/19 08:19:38;;;;;;;15.20;6.20;;;;;;;-141.28;100.00;48607.31;5108932;28;20264;-74
2022/08/19 08:22:07;;;;;;;8.30;6.17;;;;;;;-141.28;100.00;48636.75;5077325;28;20201;-76
2022/08/19 08:24:35;;;;;;;11.33;6.53;;;;;;;-141.28;100.00;48650.50;5095021;28;21705;-75
2022/08/19 08:27:03;;;;;;;12.77;6.10;;;;;;;-141.28;100.00;48599.47;5095306;28;20252;-75
2022/08/19 08:29:33;;;;;;;14.30;6.23;;;;;;;-141.28;100.00;48644.59;5096098;28;20227;-75
2022/08/19 08:32:00;;;;;;;9.93;6.27;;;;;;;-141.28;100.00;48621.06;5100267;28;20204;-75
2022/08/19 08:34:27;;;;;;;12.60;6.80;;;;;;;-141.28;100.00;48636.75;5100854;28;20276;-78
2022/08/19 08:36:55;;;;;;;11.63;5.90;;;;;;;-141.28;100.00;48640.69;5096127;28;20199;-73
2022/08/19 08:39:24;;;;;;;10.27;6.20;;;;;;;-141.28;100.00;48991.84;5088242;28;20201;-77
2022/08/19 08:41:57;;;;;;;13.13;7.10;;;;;;;-141.28;100.00;48650.50;5085716;28;20198;-75
2022/08/19 08:44:40;;;;;;;7.77;6.00;;;;;;;-141.28;100.00;48658.34;5081240;28;20193;-75
2022/08/19 08:47:13;;;;;;;13.90;6.87;;;;;;;-141.28;100.00;48644.59;5094694;28;20225;-73
2022/08/19 08:49:46;;;;;;;10.97;5.90;;;;;;;-141.28;100.00;48626.94;5095191;28;20229;-77
2022/08/19 08:52:19;;;;;;;20.60;6.80;;;;;;;-141.28;100.00;48634.78;5094483;28;20197;-77
2022/08/19 08:54:51;;;;;;;15.63;6.17;;;;;;;-141.28;100.00;48642.63;5094398;28;20206;-74
2022/08/19 08:57:24;;;;;;;8.70;5.40;;;;;;;-141.28;100.00;48623.03;5094070;28;20207;-76
2022/08/19 08:59:54;;;;;;;12.40;5.87;;;;;;;-141.28;92.51;48611.25;5095303;28;20203;-76
2022/08/19 09:02:21;;;;;;;9.07;5.57;;;;;;;-141.28;92.54;48630.88;5096595;28;20194;-73
2022/08/19 09:04:49;;;;;;;10.40;6.03;;;;;;;-141.28;98.10;48632.84;5108330;28;20209;-77
2022/08/19 09:07:32;;;;;;;15.20;6.13;;;;;;;-141.28;100.00;48595.56;5112813;28;20219;-74
2022/08/19 09:10:08;;;;;;;6.47;5.63;;;;;;;-141.28;92.11;48595.56;5112234;28;20195;-74
2022/08/19 09:12:44;;;;;;;10.30;5.90;;;;;;;-141.28;83.81;48573.97;5113537;28;20195;-76
2022/08/19 09:15:14;;;;;;;9.80;5.60;;;;;;;-141.28;79.24;48583.78;5099149;28;20196;-75
2022/08/19 09:17:42;;;;;;;8.83;5.27;;;;;;;-141.28;77.11;48572.00;5101496;28;20216;-75
2022/08/19 09:20:18;;;;;;;7.87;5.27;;;;;;;-141.28;75.69;48564.16;5092945;28;20213;-76
2022/08/19 09:22:46;;;;;;;9.03;5.73;;;;;;;-141.28;68.07;48564.16;5093825;28;20197;-77
2022/08/19 09:25:24;;;;;;;8.33;5.37;;;;;;;-141.28;70.20;48575.94;5094156;28;20191;-75
2022/08/19 09:27:53;;;;;;;6.17;4.73;;;;;;;-141.28;62.33;48568.09;5092010;28;20230;-74
2022/08/19 09:30:23;;;;;;;7.77;4.37;;;;;;;-141.28;61.10;48564.16;5065704;28;20201;-76
2022/08/19 09:32:55;;;;;;;8.17;5.17;;;;;;;-141.28;61.62;48575.94;5103813;28;20720;-75
2022/08/19 09:35:24;;;;;;;4.90;4.40;;;;;;;-141.28;62.88;48554.34;5113877;28;20216;-76
2022/08/19 09:38:07;;;;;;;8.13;4.20;;;;;;;-141.28;56.82;48558.28;5095896;28;20547;-76
2022/08/19 09:40:38;;;;;;;16.67;11.67;;;;;;;-141.28;54.91;48448.44;5093210;28;20205;-76
2022/08/19 09:43:08;;;;;;;10.90;6.27;;;;;;;-141.28;55.53;48556.31;5088996;28;20210;-75
2022/08/19 09:45:43;;;;;;;4.97;3.97;;;;;;;-141.28;51.28;48538.66;5098393;28;20212;-75
2022/08/19 09:48:12;;;;;;;4.03;3.67;;;;;;;-141.28;49.89;48522.97;5093255;28;20631;-74
2022/08/19 09:50:40;;;;;;;6.63;3.60;;;;;;;-141.28;49.80;48530.81;5075576;28;20240;-74
2022/08/19 09:53:07;;;;;;;6.93;3.93;;;;;;;-141.28;49.79;48515.13;5094229;28;20224;-74
2022/08/19 09:55:35;;;;;;;6.00;3.80;;;;;;;-141.28;49.18;48513.16;5080584;28;20265;-74
2022/08/19 09:58:03;;;;;;;4.90;3.80;;;;;;;-141.28;49.56;48524.94;5093048;28;20203;-76
2022/08/19 10:00:31;;;;;;;5.03;4.07;;;;;;;-141.28;48.63;48473.94;5097016;28;20199;-75
2022/08/19 10:02:59;;;;;;;6.40;4.00;;;;;;;-141.28;48.93;48521.00;5102429;28;20494;-76
2022/08/19 10:08:15;;;;;;;6.97;4.30;;;;;;;-141.28;48.96;48513.16;5088655;28;20734;-76
2022/08/19 10:10:44;;;;;;;7.30;3.93;;;;;;;-141.28;50.07;48493.53;5113055;28;20205;-78
2022/08/19 10:13:11;;;;;;;4.50;3.83;;;;;;;-141.28;48.79;48513.16;5097918;28;20236;-74
2022/08/19 10:15:40;;;;;;;5.53;4.10;;;;;;;-141.28;49.07;48503.34;5094057;28;20198;-76
2022/08/19 10:18:09;;;;;;;5.03;3.83;;;;;;;-141.28;46.33;48471.97;5105909;28;20207;-76
2022/08/19 10:20:41;;;;;;;5.60;3.97;;;;;;;-141.28;45.94;48458.22;5093638;28;20257;-76
2022/08/19 10:23:08;;;;;;;6.53;4.03;;;;;;;-141.28;46.48;48450.38;5092801;28;20202;-74
2022/08/19 10:25:37;;;;;;;6.10;4.33;;;;;;;-141.28;48.74;48479.81;5098509;28;20196;-73
2022/08/19 10:28:07;;;;;;;7.13;4.20;;;;;;;-141.28;47.81;48471.97;5099046;28;20223;-78
2022/08/19 10:30:35;;;;;;;7.03;4.63;;;;;;;-141.28;45.95;48481.78;5097630;28;20207;-77
2022/08/19 10:33:02;;;;;;;6.87;4.10;;;;;;;-141.28;47.70;48473.94;5102167;28;20582;-77
2022/08/19 10:35:29;;;;;;;4.77;4.37;;;;;;;-141.28;46.88;48501.41;5104425;28;20248;-76
2022/08/19 10:38:02;;;;;;;9.13;4.57;;;;;;;-141.28;47.49;48519.06;5089679;28;20187;-76
2022/08/19 10:40:40;;;;;;;5.83;4.60;;;;;;;-141.28;48.29;48524.94;5117568;28;20199;-75
2022/08/19 10:43:10;;;;;;;4.57;4.10;;;;;;;-141.28;52.46;48528.84;5102890;28;20286;-75
2022/08/19 10:45:38;;;;;;;9.40;4.50;;;;;;;-141.28;49.23;48489.63;5116696;28;20199;-75
2022/08/19 10:48:06;;;;;;;6.60;4.20;;;;;;;-141.28;47.22;48485.69;5110798;28;20219;-75
2022/08/19 10:53:17;;;;;;;4.37;3.83;;;;;;;-141.28;48.74;48477.84;5109506;28;20199;-75
2022/08/19 10:58:32;;;;;;;6.60;4.73;;;;;;;-141.28;45.80;48454.31;5084544;28;20198;-76
2022/08/19 11:01:00;;;;;;;8.93;4.63;;;;;;;-141.28;46.74;48422.94;5097982;28;20638;-75
2022/08/19 11:03:28;;;;;;;7.97;4.53;;;;;;;-141.28;44.82;48493.53;5097616;28;20287;-76
2022/08/19 11:06:00;;;;;;;6.40;4.63;;;;;;;-141.28;46.04;48468.03;5094913;28;20211;-74
2022/08/19 11:08:27;;;;;;;7.17;4.37;;;;;;;-141.28;46.18;48434.69;5086541;28;20216;-74
2022/08/19 11:10:56;;;;;;;9.23;4.50;;;;;;;-141.28;45.12;48470.00;5093468;28;20678;-76
2022/08/19 11:13:24;;;;;;;7.57;4.57;;;;;;;-141.28;46.29;48456.28;5087328;28;20200;-74
2022/08/19 11:16:01;;;;;;;6.13;4.63;;;;;;;-141.28;45.18;48430.78;5096783;28;20203;-76
2022/08/19 11:18:28;;;;;;;9.27;5.07;;;;;;;-141.28;47.15;48497.47;5096777;28;20218;-75
2022/08/19 11:20:55;;;;;;;7.30;4.30;;;;;;;-141.28;46.55;48479.81;5084043;28;20192;-76
2022/08/19 11:23:22;;;;;;;7.07;4.80;;;;;;;-141.28;45.66;48458.22;5097436;28;20219;-76
2022/08/19 11:25:51;;;;;;;7.57;5.10;;;;;;;-141.28;48.64;48536.69;5077107;28;20292;-75
2022/08/19 11:28:18;;;;;;;7.20;4.67;;;;;;;-141.28;45.91;48471.97;5104459;28;20244;-73
2022/08/19 11:30:45;;;;;;;5.97;4.37;;;;;;;-141.28;46.74;48462.16;5091838;28;20554;-74
2022/08/19 11:33:14;;;;;;;7.93;4.50;;;;;;;-141.28;45.52;48466.09;5091316;28;20603;-74
2022/08/19 11:35:42;;;;;;;8.87;4.80;;;;;;;-141.28;45.98;48444.50;5084385;28;20673;-74